createdAt,value
2023-03-27T00:00:00.836Z,21.7
2023-03-27T00:05:01.240Z,21.7
2023-03-27T00:10:01.942Z,21.7
2023-03-27T00:15:01.146Z,21.7
2023-03-27T00:20:01.269Z,21.7
2023-03-27T00:25:01.481Z,21.7
2023-03-27T00:30:01.551Z,21.7
2023-03-27T00:35:01.446Z,21.7
2023-03-27T00:40:00.824Z,21.7
2023-03-27T00:45:01.179Z,21.7
2023-03-27T00:50:01.095Z,21.7
2023-03-27T00:55:01.072Z,21.7
2023-03-27T01:00:01.482Z,21.7
2023-03-27T01:05:01.273Z,21.7
2023-03-27T01:10:01.082Z,21.7
2023-03-27T01:15:01.507Z,21.7
2023-03-27T01:25:00.808Z,21.6
2023-03-27T01:30:01.334Z,21.7
2023-03-27T01:35:02.321Z,21.6
2023-03-27T01:40:01.071Z,21.7
2023-03-27T01:45:01.465Z,21.6
2023-03-27T01:50:01.054Z,21.7
2023-03-27T01:55:00.692Z,21.6
2023-03-27T02:00:17.234Z,21.6
2023-03-27T02:05:00.847Z,21.6
2023-03-27T02:15:22.760Z,21.6
2023-03-27T02:20:00.773Z,21.6
2023-03-27T02:25:01.016Z,21.6
2023-03-27T02:30:01.277Z,21.6
2023-03-27T02:35:01.480Z,21.6
2023-03-27T02:40:01.491Z,21.6
2023-03-27T02:45:00.853Z,21.6
2023-03-27T02:50:01.879Z,21.6
2023-03-27T02:55:00.751Z,21.6
2023-03-27T03:00:00.817Z,21.6
2023-03-27T03:05:01.285Z,21.6
2023-03-27T03:10:01.431Z,21.6
2023-03-27T03:15:01.381Z,21.5
2023-03-27T03:20:00.774Z,21.6
2023-03-27T03:25:01.011Z,21.5
2023-03-27T03:30:00.914Z,21.5
2023-03-27T03:35:00.853Z,21.5
2023-03-27T03:40:01.200Z,21.5
2023-03-27T03:45:01.253Z,21.5
2023-03-27T03:50:02.718Z,21.5
2023-03-27T03:55:01.518Z,21.5
2023-03-27T04:00:02.740Z,21.5
2023-03-27T04:05:01.285Z,21.5
2023-03-27T04:10:01.042Z,21.5
2023-03-27T04:15:01.633Z,21.5
2023-03-27T04:20:00.834Z,21.5
2023-03-27T04:25:01.400Z,21.5
2023-03-27T04:30:01.053Z,21.5
2023-03-27T04:35:01.267Z,21.5
2023-03-27T04:40:01.419Z,21.5
2023-03-27T04:45:00.859Z,21.5
2023-03-27T04:50:01.282Z,21.5
2023-03-27T04:55:01.067Z,21.4
2023-03-27T05:00:01.245Z,21.4
2023-03-27T05:05:01.638Z,21.5
2023-03-27T05:10:01.226Z,21.4
2023-03-27T05:15:01.636Z,21.4
2023-03-27T05:20:02.203Z,21.4
2023-03-27T05:25:01.004Z,21.3
2023-03-27T05:30:00.887Z,21.3
2023-03-27T05:35:02.045Z,21.4
2023-03-27T05:40:04.087Z,21.4
2023-03-27T05:45:01.625Z,21.4
2023-03-27T05:50:01.022Z,21.4
2023-03-27T05:55:01.451Z,21.4
2023-03-27T06:00:01.803Z,21.3
2023-03-27T06:05:00.481Z,21.4
2023-03-27T06:10:01.922Z,21.4
2023-03-27T06:15:01.352Z,21.4
2023-03-27T06:20:01.278Z,21.4
2023-03-27T06:25:01.292Z,21.4
2023-03-27T06:30:00.911Z,21.4
2023-03-27T06:35:00.886Z,21.4
2023-03-27T06:40:01.241Z,21.4
2023-03-27T06:45:01.534Z,21.4
2023-03-27T06:50:01.023Z,21.4
2023-03-27T06:55:00.868Z,21.4
2023-03-27T07:00:03.067Z,21.4
2023-03-27T07:05:04.590Z,21.4
2023-03-27T07:10:01.449Z,21.4
2023-03-27T07:15:01.357Z,21.4
2023-03-27T07:20:01.043Z,21.4
2023-03-27T07:25:01.320Z,21.5
2023-03-27T07:30:01.163Z,21.5
2023-03-27T07:35:00.834Z,21.5
2023-03-27T07:40:00.799Z,21.5
2023-03-27T07:45:02.876Z,21.5
2023-03-27T07:50:00.853Z,21.5
2023-03-27T07:55:00.912Z,21.5
2023-03-27T08:00:00.865Z,21.5
2023-03-27T08:05:01.003Z,21.5
2023-03-27T08:10:01.043Z,21.5
2023-03-27T08:15:01.190Z,21.5
2023-03-27T08:20:01.170Z,21.5
2023-03-27T08:25:00.918Z,21.5
2023-03-27T08:30:01.309Z,21.5
2023-03-27T08:35:01.297Z,21.5
2023-03-27T08:40:02.087Z,21.5
2023-03-27T08:45:00.826Z,21.5
2023-03-27T08:50:01.085Z,21.5
2023-03-27T08:55:01.230Z,21.5
2023-03-27T09:00:01.820Z,21.5
2023-03-27T09:05:01.540Z,21.5
2023-03-27T09:10:00.997Z,21.5
2023-03-27T09:15:01.668Z,21.5
2023-03-27T09:20:00.782Z,21.5
2023-03-27T09:25:01.440Z,21.5
2023-03-27T09:30:04.800Z,21.5
2023-03-27T09:35:01.082Z,21.5
2023-03-27T09:40:01.209Z,21.5
2023-03-27T09:45:01.062Z,21.6
2023-03-27T09:50:01.242Z,21.5
2023-03-27T09:55:00.839Z,21.6
2023-03-27T10:00:02.683Z,21.6
2023-03-27T10:05:01.115Z,21.6
2023-03-27T10:10:00.828Z,21.5
2023-03-27T10:15:01.553Z,21.6
2023-03-27T10:20:01.320Z,21.5
2023-03-27T10:25:01.113Z,21.6
2023-03-27T10:30:01.545Z,21.6
2023-03-27T10:35:01.122Z,21.6
2023-03-27T10:40:01.253Z,21.7
2023-03-27T10:45:01.054Z,21.6
2023-03-27T10:50:01.105Z,21.6
2023-03-27T10:55:00.889Z,21.7
2023-03-27T11:00:01.109Z,21.6
2023-03-27T11:05:01.271Z,21.6
2023-03-27T11:10:02.045Z,21.6
2023-03-27T11:15:00.519Z,21.6
2023-03-27T11:20:01.631Z,21.6
2023-03-27T11:25:01.507Z,21.7
2023-03-27T11:30:01.049Z,21.7
2023-03-27T11:35:04.033Z,21.6
2023-03-27T11:40:01.212Z,21.6
2023-03-27T11:45:02.090Z,21.6
2023-03-27T11:50:01.012Z,21.6
2023-03-27T11:55:00.812Z,21.7
2023-03-27T12:05:01.243Z,21.7
2023-03-27T12:10:00.823Z,21.7
2023-03-27T12:15:00.846Z,21.7
2023-03-27T12:20:02.405Z,21.7
2023-03-27T12:25:02.605Z,21.7
2023-03-27T12:30:01.019Z,21.7
2023-03-27T12:35:01.362Z,21.7
2023-03-27T12:40:01.126Z,21.7
2023-03-27T12:45:01.053Z,21.7
2023-03-27T12:50:01.066Z,21.8
2023-03-27T12:55:00.848Z,21.8
2023-03-27T13:00:01.201Z,21.8
2023-03-27T13:05:00.834Z,21.8
2023-03-27T13:10:01.091Z,21.9
2023-03-27T13:15:01.261Z,21.8
2023-03-27T13:25:01.840Z,21.9
2023-03-27T13:30:02.565Z,21.9
2023-03-27T13:35:01.093Z,21.9
2023-03-27T13:40:02.533Z,21.9
2023-03-27T13:45:00.914Z,21.9
2023-03-27T13:50:02.724Z,21.8
2023-03-27T13:55:00.864Z,21.6
2023-03-27T14:00:02.529Z,21.7
2023-03-27T14:05:00.817Z,21.7
2023-03-27T14:10:03.808Z,21.7
2023-03-27T14:15:01.455Z,21.7
2023-03-27T14:20:00.836Z,21.8
2023-03-27T14:25:01.278Z,21.9
2023-03-27T14:35:02.652Z,22.0
2023-03-27T14:40:01.324Z,22.1
2023-03-27T14:45:01.676Z,22.2
2023-03-27T14:50:01.083Z,22.3
2023-03-27T14:55:01.353Z,22.4
2023-03-27T15:00:00.849Z,22.5
2023-03-27T15:05:01.402Z,22.5
2023-03-27T15:10:02.846Z,22.6
2023-03-27T15:15:01.310Z,22.6
2023-03-27T15:20:01.356Z,22.7
2023-03-27T15:25:01.061Z,22.8
2023-03-27T15:30:00.968Z,22.8
2023-03-27T15:35:01.057Z,22.8
2023-03-27T15:40:00.998Z,22.9
2023-03-27T15:45:01.574Z,22.9
2023-03-27T15:50:02.147Z,22.9
2023-03-27T15:55:01.570Z,22.9
2023-03-27T16:00:01.904Z,23.0
2023-03-27T16:05:01.693Z,23.0
2023-03-27T16:10:00.877Z,23.0
2023-03-27T16:15:00.599Z,23.0
2023-03-27T16:20:02.356Z,23.0
2023-03-27T16:25:00.806Z,23.0
2023-03-27T16:30:01.476Z,23.0
2023-03-27T16:35:01.077Z,23.0
2023-03-27T16:40:01.115Z,23.0
2023-03-27T16:45:01.059Z,23.0
2023-03-27T16:50:11.176Z,23.0
2023-03-27T16:55:01.081Z,22.9
2023-03-27T17:00:00.856Z,22.9
2023-03-27T17:05:02.291Z,22.9
2023-03-27T17:10:03.231Z,22.8
2023-03-27T17:15:00.860Z,22.9
2023-03-27T17:20:01.347Z,22.9
2023-03-27T17:25:01.165Z,22.8
2023-03-27T17:30:01.600Z,22.8
2023-03-27T17:35:02.171Z,22.6
2023-03-27T17:40:01.860Z,22.6
2023-03-27T17:45:01.310Z,22.6
2023-03-27T17:50:01.346Z,22.5
2023-03-27T17:55:01.424Z,22.5
2023-03-27T18:00:01.302Z,22.5
2023-03-27T18:05:00.826Z,22.5
2023-03-27T18:10:00.896Z,22.5
2023-03-27T18:15:01.503Z,22.5
2023-03-27T18:20:01.026Z,22.5
2023-03-27T18:25:00.971Z,22.5
2023-03-27T18:30:01.058Z,22.5
2023-03-27T18:35:01.540Z,22.5
2023-03-27T18:40:01.583Z,22.5
2023-03-27T18:45:01.489Z,22.4
2023-03-27T18:50:01.361Z,22.4
2023-03-27T18:55:01.277Z,22.4
2023-03-27T19:00:01.562Z,22.4
2023-03-27T19:05:01.464Z,22.4
2023-03-27T19:10:00.846Z,22.4
2023-03-27T19:15:06.757Z,22.4
2023-03-27T19:20:00.844Z,22.4
2023-03-27T19:25:01.521Z,22.4
2023-03-27T19:30:01.338Z,22.4
2023-03-27T19:35:00.845Z,22.4
2023-03-27T19:40:01.416Z,22.4
2023-03-27T19:45:01.812Z,22.4
2023-03-27T19:50:02.095Z,22.4
2023-03-27T19:55:01.095Z,22.4
2023-03-27T20:00:00.872Z,22.4
2023-03-27T20:05:00.809Z,22.4
2023-03-27T20:10:01.166Z,22.4
2023-03-27T20:15:10.426Z,22.3
2023-03-27T20:20:01.005Z,22.3
2023-03-27T20:25:00.765Z,22.3
2023-03-27T20:30:01.556Z,22.3
2023-03-27T20:35:05.316Z,22.4
2023-03-27T20:40:00.985Z,22.4
2023-03-27T20:45:01.469Z,22.3
2023-03-27T20:50:01.486Z,22.4
2023-03-27T20:55:00.801Z,22.4
2023-03-27T21:00:01.231Z,22.3
2023-03-27T21:05:01.512Z,22.2
2023-03-27T21:10:01.278Z,22.0
2023-03-27T21:15:01.018Z,22.0
2023-03-27T21:20:01.253Z,21.9
2023-03-27T21:25:00.852Z,21.8
2023-03-27T21:30:02.469Z,21.8
2023-03-27T21:35:01.240Z,21.7
2023-03-27T21:40:00.828Z,21.7
2023-03-27T21:45:00.819Z,21.7
2023-03-27T21:50:01.121Z,21.6
2023-03-27T21:55:03.407Z,21.6
2023-03-27T22:00:01.098Z,21.6
2023-03-27T22:05:01.285Z,21.5
2023-03-27T22:10:01.225Z,21.5
2023-03-27T22:15:01.468Z,21.5
2023-03-27T22:20:00.869Z,21.5
2023-03-27T22:25:01.354Z,21.4
2023-03-27T22:30:00.818Z,21.4
2023-03-27T22:35:01.293Z,21.4
2023-03-27T22:40:01.989Z,21.4
2023-03-27T22:45:01.945Z,21.4
2023-03-27T22:55:01.375Z,21.3
2023-03-27T23:00:02.388Z,21.3
2023-03-27T23:05:01.138Z,21.3
2023-03-27T23:10:01.051Z,21.3
2023-03-27T23:15:01.279Z,21.3
2023-03-27T23:20:01.072Z,21.3
2023-03-27T23:25:01.068Z,21.3
2023-03-27T23:30:01.552Z,21.3
2023-03-27T23:35:01.918Z,21.3
2023-03-27T23:40:03.285Z,21.3
2023-03-27T23:45:01.505Z,21.3
2023-03-27T23:50:01.002Z,21.4
2023-03-27T23:55:01.527Z,21.4
